Time;durP1;ratioP1;P1;durP2;ratioP2;P2;SDS_P1;SDS_P2;PMS_P1;PMS_P2;Temp;Humidity;BMP_temperature;BMP_pressure;BME280_temperature;BME280_humidity;BME280_pressure;Samples;Min_cycle;Max_cycle;Signal;HPM_P1;HPM_P2
2021/01/21 00:01:27;;;;;;;5.40;4.80;;;;;;;5.15;63.79;96359.69;1703309;83;20685;-61
2021/01/21 00:03:55;;;;;;;5.55;4.47;;;;;;;5.20;63.72;96355.59;1669898;85;21813;-60
2021/01/21 00:06:23;;;;;;;5.67;3.75;;;;;;;5.23;63.51;96355.44;1662570;85;21150;-60
2021/01/21 00:08:50;;;;;;;4.12;3.30;;;;;;;5.28;63.29;96345.73;1668626;85;21196;-60
2021/01/21 00:11:18;;;;;;;5.65;3.70;;;;;;;5.40;63.15;96353.24;1691952;83;21653;-60
2021/01/21 00:13:47;;;;;;;;;;;;;;;5.47;62.90;96349.41;1687962;83;22101;-60
2021/01/21 00:16:14;;;;;;;5.00;3.75;;;;;;;5.56;62.57;96354.55;1686617;84;20579;-60
2021/01/21 00:18:42;;;;;;;4.55;3.85;;;;;;;5.62;62.50;96353.37;1653783;84;21141;-60
2021/01/21 00:21:09;;;;;;;4.42;3.77;;;;;;;5.67;62.27;96356.08;1719109;82;21580;-60
2021/01/21 00:23:37;;;;;;;6.70;4.22;;;;;;;5.73;62.09;96355.37;1708350;82;21061;-61
2021/01/21 00:26:05;;;;;;;5.47;4.17;;;;;;;5.73;62.07;96346.36;1668775;85;21658;-60
2021/01/21 00:28:32;;;;;;;6.03;4.10;;;;;;;5.76;62.09;96350.05;1670669;85;21100;-61
2021/01/21 00:31:00;;;;;;;5.67;4.90;;;;;;;5.77;62.02;96353.80;1653774;86;21573;-61
2021/01/21 00:33:28;;;;;;;6.05;4.35;;;;;;;5.78;61.90;96346.47;1663877;85;21187;-61
2021/01/21 00:35:56;;;;;;;4.43;3.80;;;;;;;5.77;61.79;96353.80;1697150;83;21076;-62
2021/01/21 00:38:23;;;;;;;5.67;3.75;;;;;;;5.75;61.69;96354.81;1689257;83;21859;-62
2021/01/21 00:40:51;;;;;;;4.30;3.37;;;;;;;5.73;61.44;96343.78;1696653;83;21162;-59
2021/01/21 00:43:19;;;;;;;4.58;3.50;;;;;;;5.71;61.19;96341.30;1679803;83;21574;-60
2021/01/21 00:45:47;;;;;;;3.58;3.22;;;;;;;5.68;61.06;96335.84;1680780;83;21101;-58
2021/01/21 00:48:14;;;;;;;3.20;2.90;;;;;;;5.66;60.90;96335.10;1691369;83;21066;-60
2021/01/21 00:50:42;;;;;;;3.15;2.85;;;;;;;5.64;60.82;96324.50;1690208;83;21382;-61
2021/01/21 00:53:11;;;;;;;3.30;3.00;;;;;;;5.62;60.81;96323.30;1691911;84;21169;-60
2021/01/21 00:55:39;;;;;;;6.95;2.92;;;;;;;5.63;60.70;96340.88;1682741;84;21581;-61
2021/01/21 00:58:09;;;;;;;3.37;2.72;;;;;;;5.63;60.66;96335.27;1714645;83;21168;-60
2021/01/21 01:00:37;;;;;;;2.55;2.20;;;;;;;5.65;60.40;96330.03;1661885;85;21157;-61
2021/01/21 01:03:07;;;;;;;1.80;1.70;;;;;;;5.68;59.87;96324.72;1661146;84;21484;-60
2021/01/21 01:05:37;;;;;;;3.08;2.42;;;;;;;5.72;59.54;96317.19;1651586;85;21092;-61
2021/01/21 01:08:06;;;;;;;1.82;1.72;;;;;;;5.77;59.33;96321.63;1689118;84;21530;-60
2021/01/21 01:10:33;;;;;;;2.00;1.90;;;;;;;5.80;59.02;96309.87;1679923;84;21612;-61
2021/01/21 01:13:03;;;;;;;2.05;1.82;;;;;;;5.82;58.97;96306.77;1656729;86;21105;-60
2021/01/21 01:15:33;;;;;;;1.80;1.70;;;;;;;5.83;58.73;96291.68;1699209;83;21435;-59
2021/01/21 01:18:01;;;;;;;2.15;1.95;;;;;;;5.85;58.74;96303.18;1664137;85;21647;-60
2021/01/21 01:20:29;;;;;;;2.52;1.82;;;;;;;5.88;58.77;96288.84;1690533;84;21148;-61
2021/01/21 01:22:57;;;;;;;2.80;1.90;;;;;;;5.89;58.93;96293.09;1682034;84;21533;-59
2021/01/21 01:25:25;;;;;;;2.47;2.27;;;;;;;5.88;58.99;96269.06;1687675;84;21145;-59
2021/01/21 01:27:53;;;;;;;2.37;2.17;;;;;;;5.87;59.13;96286.73;1686307;84;21461;-58
2021/01/21 01:30:22;;;;;;;1.82;1.72;;;;;;;5.85;59.37;96282.11;1686454;84;21613;-59
2021/01/21 01:32:52;;;;;;;2.37;1.92;;;;;;;5.85;59.37;96282.11;1684547;83;21180;-61
2021/01/21 01:35:19;;;;;;;2.37;1.92;;;;;;;5.84;59.28;96277.90;1686367;83;21572;-61
2021/01/21 01:37:48;;;;;;;2.25;2.08;;;;;;;5.84;59.08;96274.03;1713623;82;21628;-61
2021/01/21 01:40:17;;;;;;;2.30;2.10;;;;;;;5.86;59.16;96273.95;1711436;82;21855;-58
2021/01/21 01:42:47;;;;;;;3.70;2.25;;;;;;;5.90;59.10;96275.42;1701229;83;21100;-59
2021/01/21 01:45:17;;;;;;;2.40;2.20;;;;;;;5.90;59.24;96258.69;1667519;85;21096;-59
2021/01/21 01:47:46;;;;;;;3.12;2.42;;;;;;;5.89;59.33;96244.98;1708302;82;21077;-59
2021/01/21 01:50:24;;;;;;;3.12;2.70;;;;;;;5.94;59.52;96266.62;1850084;75;27649;-61
2021/01/21 01:52:54;;;;;;;4.78;2.50;;;;;;;5.88;59.52;96263.92;1805302;77;21118;-61
2021/01/21 01:55:24;;;;;;;2.75;2.50;;;;;;;5.86;59.54;96246.45;1824460;76;22122;-60
2021/01/21 01:58:03;;;;;;;2.58;2.10;;;;;;;5.85;59.58;96235.77;1827785;76;20922;-60
2021/01/21 02:00:43;;;;;;;3.27;2.35;;;;;;;5.92;59.45;96232.84;1857894;75;28478;-60
2021/01/21 02:03:11;;;;;;;2.77;2.22;;;;;;;5.89;59.54;96242.88;1832069;78;21063;-60
2021/01/21 02:05:40;;;;;;;2.70;2.50;;;;;;;5.88;59.56;96251.05;1829887;78;22121;-61
2021/01/21 02:08:08;;;;;;;2.40;2.20;;;;;;;5.87;59.41;96254.98;1821691;78;21077;-60
2021/01/21 02:10:37;;;;;;;;;;;;;;;5.85;59.35;96255.08;1799350;78;21166;-60
2021/01/21 02:13:43;;;;;;;2.50;2.30;;;;;;;5.85;59.41;96268.42;1792759;78;20305;-59
2021/01/21 02:16:36;;;;;;;2.58;2.05;;;;;;;5.83;59.15;96252.23;1778562;79;21489;-60
2021/01/21 02:19:58;;;;;;;2.02;1.85;;;;;;;5.86;59.16;96227.60;1797390;79;21271;-60
2021/01/21 02:22:51;;;;;;;2.27;1.87;;;;;;;5.87;58.94;96226.23;1790843;79;21108;-59
2021/01/21 02:25:31;;;;;;;4.20;2.00;;;;;;;5.88;58.87;96212.89;1794896;79;21155;-59
2021/01/21 02:28:15;;;;;;;2.40;2.20;;;;;;;5.86;59.09;96243.87;1799068;78;21117;-60
2021/01/21 02:30:58;;;;;;;2.58;1.95;;;;;;;5.86;59.16;96232.75;1798492;79;21472;-59
2021/01/21 02:33:51;;;;;;;5.58;2.35;;;;;;;5.85;59.23;96249.92;1798830;79;21416;-59
2021/01/21 02:36:24;;;;;;;2.10;2.00;;;;;;;5.83;59.37;96235.50;1795642;79;21546;-60
2021/01/21 02:38:53;;;;;;;2.17;2.08;;;;;;;5.82;59.61;96244.98;1798468;78;21111;-61
2021/01/21 02:41:21;;;;;;;2.50;2.30;;;;;;;5.84;59.56;96242.31;1797452;79;21059;-61
2021/01/21 02:43:54;;;;;;;3.10;2.37;;;;;;;5.86;59.84;96226.31;1804009;79;21043;-61
2021/01/21 02:46:23;;;;;;;4.80;2.12;;;;;;;5.88;59.97;96251.05;1797863;79;21195;-61
2021/01/21 02:48:52;;;;;;;;;;;;;;;5.85;60.07;96247.82;1772186;79;21540;-60
2021/01/21 02:51:33;;;;;;;2.35;2.15;;;;;;;5.83;60.20;96238.89;1797436;79;20238;-61
2021/01/21 02:54:16;;;;;;;4.28;2.35;;;;;;;5.84;60.22;96247.47;1798434;79;21088;-60
2021/01/21 02:56:44;;;;;;;3.02;2.33;;;;;;;5.86;60.16;96240.48;1762394;79;21143;-59
2021/01/21 02:59:21;;;;;;;2.15;1.95;;;;;;;5.88;60.10;96228.34;1792446;77;21072;-59
2021/01/21 03:01:48;;;;;;;2.20;2.00;;;;;;;5.88;59.93;96252.80;1793757;79;21088;-59
2021/01/21 03:04:18;;;;;;;1.95;1.82;;;;;;;5.89;59.78;96251.42;1792696;79;21052;-59
2021/01/21 03:06:46;;;;;;;2.75;2.00;;;;;;;5.91;59.72;96238.47;1798687;78;21142;-58
2021/01/21 03:09:15;;;;;;;1.70;1.60;;;;;;;5.93;59.71;96248.68;1793598;79;21176;-58
2021/01/21 03:11:43;;;;;;;2.33;1.57;;;;;;;5.93;59.75;96255.94;1800385;79;21367;-59
2021/01/21 03:14:11;;;;;;;2.47;1.25;;;;;;;5.94;59.62;96237.44;1794796;78;21481;-59
2021/01/21 03:16:41;;;;;;;1.92;1.70;;;;;;;5.94;59.34;96212.54;1789306;79;21080;-59
2021/01/21 03:19:10;;;;;;;1.70;1.52;;;;;;;5.98;59.20;96239.79;1791177;79;21053;-59
2021/01/21 03:21:38;;;;;;;1.50;1.40;;;;;;;5.98;59.17;96234.64;1795081;78;21095;-60
2021/01/21 03:24:08;;;;;;;1.80;1.70;;;;;;;5.96;59.19;96225.33;1803046;78;21202;-60
2021/01/21 03:26:46;;;;;;;2.45;1.40;;;;;;;5.98;59.42;96248.80;1858180;76;27779;-60
2021/01/21 03:29:15;;;;;;;1.70;1.60;;;;;;;5.92;59.56;96251.72;1813030;78;21052;-60
2021/01/21 03:31:43;;;;;;;1.80;1.47;;;;;;;5.97;59.55;96261.33;1829117;78;21635;-60
2021/01/21 03:34:11;;;;;;;1.42;1.32;;;;;;;6.00;59.49;96256.44;1822943;76;20984;-59
2021/01/21 03:36:41;;;;;;;2.12;1.77;;;;;;;5.99;59.45;96269.79;1826665;78;21058;-59
2021/01/21 03:39:08;;;;;;;1.30;1.20;;;;;;;5.99;59.48;96267.22;1828152;78;21143;-59
2021/01/21 03:41:56;;;;;;;1.23;1.13;;;;;;;6.06;59.43;96263.36;1867455;75;27502;-59
2021/01/21 03:44:45;;;;;;;1.30;1.20;;;;;;;6.02;59.29;96253.31;1843772;75;21110;-59
2021/01/21 03:47:13;;;;;;;1.60;1.50;;;;;;;6.04;59.16;96256.66;1781750;80;21420;-59
2021/01/21 03:49:54;;;;;;;1.80;1.22;;;;;;;6.10;59.00;96236.95;1857069;75;27523;-59
2021/01/21 03:52:24;;;;;;;2.67;0.90;;;;;;;6.04;58.80;96233.47;1816359;78;21071;-58
2021/01/21 03:55:02;;;;;;;1.83;1.20;;;;;;;6.11;58.47;96185.00;1877176;75;26612;-60
2021/01/21 03:57:30;;;;;;;;;;;;;;;6.08;58.43;96213.04;1790865;78;21043;-60
2021/01/21 04:00:10;;;;;;;0.87;0.87;;;;;;;6.09;58.57;96263.65;1768176;78;21224;-60
2021/01/21 04:02:40;;;;;;;2.33;1.37;;;;;;;6.08;58.33;96251.68;1787210;80;21088;-60
2021/01/21 04:05:20;;;;;;;2.30;1.98;;;;;;;6.07;58.47;96253.44;1797235;79;21113;-59
2021/01/21 04:07:47;;;;;;;2.23;2.00;;;;;;;6.07;58.40;96248.28;1799031;79;21187;-60
2021/01/21 04:10:15;;;;;;;2.22;1.95;;;;;;;6.07;58.32;96253.91;1779935;79;21141;-59
2021/01/21 04:12:56;;;;;;;1.30;1.20;;;;;;;6.12;58.37;96236.87;1863782;75;26459;-59
2021/01/21 04:15:24;;;;;;;1.85;1.37;;;;;;;6.08;58.29;96212.61;1844136;76;21061;-59
2021/01/21 04:17:51;;;;;;;1.60;1.50;;;;;;;6.09;58.29;96276.53;1850237;75;22279;-60
2021/01/21 04:20:21;;;;;;;2.30;1.80;;;;;;;6.09;58.38;96261.08;1844705;76;21129;-60
2021/01/21 04:22:51;;;;;;;2.05;1.85;;;;;;;6.09;58.38;96262.36;1836355;75;21179;-60
2021/01/21 04:25:19;;;;;;;2.25;2.02;;;;;;;6.07;58.38;96226.39;1843248;76;21185;-59
2021/01/21 04:27:49;;;;;;;1.77;1.67;;;;;;;6.07;58.54;96271.47;1844496;75;21219;-60
2021/01/21 04:30:19;;;;;;;2.33;1.87;;;;;;;6.04;58.51;96265.20;1846200;75;21372;-61
2021/01/21 04:32:47;;;;;;;1.80;1.70;;;;;;;6.04;58.58;96255.36;1848353;75;21114;-61
2021/01/21 04:35:17;;;;;;;1.85;1.50;;;;;;;6.05;58.59;96257.85;1846482;76;21530;-60
2021/01/21 04:37:47;;;;;;;1.50;1.40;;;;;;;6.05;58.63;96253.98;1842878;75;21076;-61
2021/01/21 04:40:19;;;;;;;1.25;1.15;;;;;;;6.04;58.65;96277.26;1839993;75;21114;-61
2021/01/21 04:42:48;;;;;;;1.65;1.55;;;;;;;6.04;58.72;96278.55;1834647;77;21376;-61
2021/01/21 04:45:16;;;;;;;1.72;1.62;;;;;;;6.04;58.63;96258.76;1838737;75;21085;-60
2021/01/21 04:47:46;;;;;;;2.02;1.82;;;;;;;6.07;58.66;96270.64;1840080;77;21144;-60
2021/01/21 04:50:22;;;;;;;2.17;1.98;;;;;;;6.10;58.51;96255.45;1776299;78;21113;-62
2021/01/21 04:53:00;;;;;;;4.20;2.90;;;;;;;6.16;58.42;96262.84;1878090;76;28562;-59
2021/01/21 04:55:41;;;;;;;1.77;1.67;;;;;;;6.13;58.31;96266.87;1839899;77;21180;-59
2021/01/21 04:58:40;;;;;;;1.80;1.62;;;;;;;6.15;58.18;96253.00;1797652;79;21222;-59
2021/01/21 05:01:08;;;;;;;1.40;1.30;;;;;;;6.17;58.05;96248.58;1762152;81;21110;-58
2021/01/21 05:03:36;;;;;;;0.93;0.93;;;;;;;6.19;58.06;96263.95;1746174;80;21556;-59
2021/01/21 05:06:21;;;;;;;1.77;1.62;;;;;;;6.20;58.24;96256.57;1781771;80;21164;-59
2021/01/21 05:08:51;;;;;;;2.37;1.80;;;;;;;6.17;58.47;96278.67;1777924;80;21217;-58
2021/01/21 05:11:21;;;;;;;1.77;1.67;;;;;;;6.15;58.57;96238.83;1787613;80;21345;-58
2021/01/21 05:14:07;;;;;;;1.72;1.57;;;;;;;6.15;58.59;96253.00;1792727;79;21121;-58
2021/01/21 05:17:00;;;;;;;2.20;2.00;;;;;;;6.21;58.80;96265.50;1877828;75;29862;-60
2021/01/21 05:19:32;;;;;;;1.72;1.62;;;;;;;6.15;58.81;96255.58;1749834;80;21611;-59
2021/01/21 05:22:23;;;;;;;2.93;1.80;;;;;;;6.18;58.77;96255.37;1857414;75;28567;-61
2021/01/21 05:24:52;;;;;;;1.92;1.72;;;;;;;6.14;58.84;96265.97;1834275;77;21120;-58
2021/01/21 05:27:33;;;;;;;2.27;1.60;;;;;;;6.17;59.06;96247.77;1878201;75;26478;-60
2021/01/21 05:30:08;;;;;;;3.35;1.90;;;;;;;6.12;58.97;96269.92;1784741;78;21581;-60
2021/01/21 05:32:36;;;;;;;3.12;1.72;;;;;;;6.11;59.13;96277.27;1788476;78;22394;-59
2021/01/21 05:35:14;;;;;;;2.02;1.90;;;;;;;6.07;59.21;96265.02;1789790;78;21237;-60
2021/01/21 05:37:54;;;;;;;2.58;2.37;;;;;;;5.99;59.42;96281.84;1803197;78;21533;-60
2021/01/21 05:40:26;;;;;;;4.30;2.30;;;;;;;5.93;59.50;96286.02;1802082;78;21133;-60
2021/01/21 05:43:04;;;;;;;2.72;2.40;;;;;;;5.87;59.69;96279.45;1856027;76;26439;-59
2021/01/21 05:45:33;;;;;;;2.72;2.10;;;;;;;5.82;59.73;96290.47;1826726;78;21122;-59
2021/01/21 05:48:07;;;;;;;2.30;1.75;;;;;;;5.83;59.69;96280.09;1768864;78;21219;-59
2021/01/21 05:50:36;;;;;;;3.20;2.05;;;;;;;5.82;59.67;96288.75;1758704;79;21183;-59
2021/01/21 05:53:07;;;;;;;3.00;2.70;;;;;;;5.84;59.49;96276.61;1758239;79;21496;-59
2021/01/21 05:55:37;;;;;;;2.25;1.77;;;;;;;5.87;59.46;96267.87;1746429;80;21492;-60
2021/01/21 05:58:10;;;;;;;2.67;2.47;;;;;;;5.89;59.22;96280.22;1762169;80;21115;-60
2021/01/21 06:00:38;;;;;;;2.35;2.12;;;;;;;5.90;59.10;96274.13;1735841;80;21376;-60
2021/01/21 06:03:08;;;;;;;1.90;1.80;;;;;;;5.93;59.07;96289.41;1757877;80;21155;-60
2021/01/21 06:05:57;;;;;;;1.90;1.80;;;;;;;5.94;58.99;96274.34;1736976;80;21236;-62
2021/01/21 06:08:25;;;;;;;2.60;1.80;;;;;;;5.97;58.99;96276.78;1755931;80;21611;-59
2021/01/21 06:10:52;;;;;;;2.00;1.90;;;;;;;6.00;58.83;96271.45;1696443;81;21120;-60
2021/01/21 06:13:20;;;;;;;1.80;1.70;;;;;;;6.07;58.92;96275.80;1746037;82;21354;-60
2021/01/21 06:15:48;;;;;;;2.65;2.33;;;;;;;6.08;58.83;96282.16;1697829;80;21179;-60
2021/01/21 06:18:16;;;;;;;2.22;2.02;;;;;;;6.13;58.66;96269.45;1743617;80;21190;-59
2021/01/21 06:20:56;;;;;;;2.45;2.20;;;;;;;6.25;58.50;96276.02;1868940;75;27057;-60
2021/01/21 06:23:33;;;;;;;2.50;2.30;;;;;;;6.30;58.30;96271.03;1851456;77;21143;-60
2021/01/21 06:26:15;;;;;;;2.27;2.08;;;;;;;6.41;58.05;96289.27;1851909;77;22284;-58
2021/01/21 06:28:43;;;;;;;1.87;1.55;;;;;;;6.59;57.35;96286.08;1839417;77;20990;-60
2021/01/21 06:31:12;;;;;;;2.67;1.90;;;;;;;6.80;56.51;96292.52;1800469;78;21112;-60
2021/01/21 06:33:41;;;;;;;1.67;1.52;;;;;;;6.99;55.98;96288.85;1784707;80;21631;-60
2021/01/21 06:36:09;;;;;;;;;;;;;;;7.15;55.50;96290.01;1782624;80;21199;-60
2021/01/21 06:38:43;;;;;;;14.07;6.40;;;;;;;7.26;54.95;96300.98;1776879;80;22280;-60
2021/01/21 06:41:14;;;;;;;13.43;7.85;;;;;;;7.26;54.48;96301.80;1778583;80;21160;-60
2021/01/21 06:43:42;;;;;;;14.53;6.75;;;;;;;7.29;53.99;96297.73;1773566;79;21139;-60
2021/01/21 06:46:15;;;;;;;10.78;6.72;;;;;;;7.40;53.53;96291.07;1803642;79;21137;-60
2021/01/21 06:48:50;;;;;;;10.50;6.15;;;;;;;7.74;53.00;96297.52;1796868;79;21178;-60
2021/01/21 06:51:19;;;;;;;10.53;6.58;;;;;;;8.25;52.06;96291.17;1772914;80;21375;-59
2021/01/21 06:53:50;;;;;;;10.60;6.05;;;;;;;8.76;50.63;96295.58;1769176;80;21101;-59
2021/01/21 06:56:19;;;;;;;11.65;7.62;;;;;;;9.13;49.57;96297.42;1792711;78;21076;-61
2021/01/21 06:58:52;;;;;;;10.28;7.15;;;;;;;9.47;48.83;96288.09;1779567;78;21037;-60
2021/01/21 07:01:36;;;;;;;7.87;5.62;;;;;;;9.92;48.08;96297.41;1785279;80;21117;-60
2021/01/21 07:04:21;;;;;;;8.65;6.15;;;;;;;10.49;46.80;96291.96;1776744;80;21364;-61
2021/01/21 07:07:03;;;;;;;7.65;5.75;;;;;;;11.23;44.91;96299.77;1800887;78;21167;-59
2021/01/21 07:09:29;;;;;;;5.00;3.90;;;;;;;11.66;44.19;96287.77;1815911;78;21144;-60
2021/01/21 07:11:59;;;;;;;5.92;4.90;;;;;;;12.26;42.86;96293.38;1804467;78;21553;-59
2021/01/21 07:14:30;;;;;;;5.30;3.90;;;;;;;12.96;41.71;96300.99;1713736;81;21664;-58
2021/01/21 07:17:04;;;;;;;6.97;4.55;;;;;;;13.48;40.33;96298.31;1740611;81;21372;-58
2021/01/21 07:19:40;;;;;;;4.62;3.55;;;;;;;13.69;39.19;96282.58;1773678;79;21565;-59
2021/01/21 07:22:18;;;;;;;3.27;2.83;;;;;;;13.75;39.37;96271.62;1767198;81;21073;-60
2021/01/21 07:24:55;;;;;;;2.85;2.60;;;;;;;13.88;39.23;96272.66;1780224;79;21061;-59
2021/01/21 07:27:29;;;;;;;3.08;2.50;;;;;;;14.22;38.32;96270.92;1784584;79;21084;-59
2021/01/21 07:30:20;;;;;;;3.77;2.80;;;;;;;14.30;37.46;96258.00;1784770;80;21171;-61
2021/01/21 07:32:48;;;;;;;3.45;2.85;;;;;;;14.30;37.64;96271.55;1720098;82;21072;-60
2021/01/21 07:35:35;;;;;;;2.83;2.55;;;;;;;14.58;37.33;96262.50;1762269;80;28108;-61
2021/01/21 07:38:03;;;;;;;2.50;2.27;;;;;;;14.67;36.96;96266.89;1755496;80;21172;-59
2021/01/21 07:40:46;;;;;;;2.50;2.20;;;;;;;14.04;36.66;96269.98;1758251;81;21239;-60
2021/01/21 07:43:14;;;;;;;2.45;2.25;;;;;;;13.15;38.42;96265.55;1729803;83;21155;-60
2021/01/21 07:45:44;;;;;;;4.85;3.47;;;;;;;12.48;40.04;96272.45;1744553;80;21184;-60
2021/01/21 07:48:27;;;;;;;5.47;3.95;;;;;;;12.06;41.01;96268.52;1784241;80;21121;-61
2021/01/21 07:50:56;;;;;;;5.37;3.67;;;;;;;11.91;41.60;96284.90;1787710;80;21156;-60
2021/01/21 07:53:25;;;;;;;6.85;5.35;;;;;;;11.64;41.69;96283.17;1722099;81;21056;-60
2021/01/21 07:55:54;;;;;;;5.45;4.53;;;;;;;11.71;41.94;96278.67;1761745;80;21484;-59
2021/01/21 07:58:36;;;;;;;3.67;3.37;;;;;;;12.57;40.84;96274.75;1769564;81;21112;-60
2021/01/21 08:01:10;;;;;;;5.83;4.10;;;;;;;13.48;38.63;96271.44;1761600;79;21144;-60
2021/01/21 08:03:42;;;;;;;5.60;3.47;;;;;;;14.09;36.98;96265.16;1792583;80;21132;-60
2021/01/21 08:06:18;;;;;;;5.33;3.87;;;;;;;14.39;36.79;96266.80;1771918;81;21132;-60
2021/01/21 08:08:49;;;;;;;4.28;3.80;;;;;;;14.78;36.06;96259.37;1756097;81;21270;-60
2021/01/21 08:11:22;;;;;;;5.60;5.00;;;;;;;15.21;34.94;96258.80;1771480;81;21100;-60
2021/01/21 08:13:57;;;;;;;7.60;4.58;;;;;;;15.55;35.17;96263.91;1766494;79;21129;-61
2021/01/21 08:16:24;;;;;;;7.03;4.45;;;;;;;16.31;33.51;96258.23;1782500;79;21073;-60
2021/01/21 08:19:01;;;;;;;4.72;4.00;;;;;;;16.59;33.10;96255.98;1761852;80;21125;-60
2021/01/21 08:21:29;;;;;;;3.92;3.52;;;;;;;16.68;32.65;96255.89;1760424;80;21366;-61
2021/01/21 08:24:02;;;;;;;3.85;3.50;;;;;;;16.58;33.07;96263.03;1764592;80;21561;-60
2021/01/21 08:26:31;;;;;;;3.27;2.98;;;;;;;16.95;32.55;96252.78;1739703;82;21120;-61
2021/01/21 08:28:58;;;;;;;4.15;3.60;;;;;;;17.34;31.98;96260.17;1762799;81;21184;-61
2021/01/21 08:31:46;;;;;;;3.62;3.33;;;;;;;17.23;31.41;96261.76;1742719;81;21068;-61
2021/01/21 08:34:21;;;;;;;7.42;5.15;;;;;;;16.65;32.05;96263.23;1736017;81;21440;-61
2021/01/21 08:36:50;;;;;;;4.33;3.75;;;;;;;16.47;32.84;96265.90;1751585;81;21156;-61
2021/01/21 08:39:18;;;;;;;5.47;4.42;;;;;;;16.98;32.32;96262.14;1736454;81;21113;-61
2021/01/21 08:41:46;;;;;;;4.40;3.73;;;;;;;17.55;31.62;96266.30;1771549;80;21045;-61
2021/01/21 08:44:18;;;;;;;4.20;3.60;;;;;;;17.88;30.37;96273.44;1713331;81;21104;-61
2021/01/21 08:46:59;;;;;;;3.92;3.33;;;;;;;17.57;30.48;96273.52;1746598;81;21373;-61
2021/01/21 08:49:29;;;;;;;3.02;2.72;;;;;;;17.03;30.98;96262.00;1756449;81;21093;-61
2021/01/21 08:52:09;;;;;;;3.37;3.08;;;;;;;16.59;32.05;96265.16;1776381;80;21101;-61
2021/01/21 08:54:38;;;;;;;3.80;3.37;;;;;;;16.90;32.07;96266.34;1752721;80;21513;-61
2021/01/21 08:57:16;;;;;;;4.17;3.50;;;;;;;17.79;31.61;96276.52;1671345;81;21665;-61
2021/01/21 08:59:45;;;;;;;;;;;;;;;18.94;29.92;96268.66;1747831;81;21455;-61
2021/01/21 09:02:13;;;;;;;4.55;3.65;;;;;;;19.63;28.34;96265.44;1726336;81;20453;-67
2021/01/21 09:04:41;;;;;;;4.05;3.05;;;;;;;19.39;28.78;96254.05;1752957;80;21120;-63
2021/01/21 09:07:10;;;;;;;3.10;2.83;;;;;;;18.40;29.95;96262.64;1778338;80;21164;-64
2021/01/21 09:09:41;;;;;;;1.95;1.85;;;;;;;17.46;31.26;96261.50;1772571;80;21612;-60
2021/01/21 09:12:18;;;;;;;1.57;1.47;;;;;;;17.26;31.53;96249.65;1775031;80;21168;-59
2021/01/21 09:15:07;;;;;;;1.73;1.63;;;;;;;17.54;31.54;96253.34;1754556;81;21088;-61
2021/01/21 09:17:41;;;;;;;;;;;;;;;18.40;30.49;96256.07;1762844;80;21086;-61
2021/01/21 09:20:21;;;;;;;1.82;1.45;;;;;;;19.18;29.30;96264.31;1783841;80;20234;-60
2021/01/21 09:22:51;;;;;;;3.00;2.20;;;;;;;19.24;28.56;96255.27;1769057;80;21132;-60
2021/01/21 09:25:25;;;;;;;2.20;2.00;;;;;;;18.53;29.21;96257.70;1752922;81;21353;-60
2021/01/21 09:27:54;;;;;;;2.70;1.72;;;;;;;18.47;29.97;96245.72;1768546;80;21124;-61
2021/01/21 09:30:25;;;;;;;1.75;1.65;;;;;;;18.92;29.06;96249.63;1754866;80;21534;-60
2021/01/21 09:32:54;;;;;;;3.45;1.92;;;;;;;18.96;29.06;96243.02;1758345;80;21077;-60
2021/01/21 09:35:24;;;;;;;2.55;2.27;;;;;;;18.87;28.54;96246.68;1758680;80;21553;-61
2021/01/21 09:37:56;;;;;;;2.87;1.95;;;;;;;18.54;29.14;96237.02;1762810;80;21192;-60
2021/01/21 09:40:31;;;;;;;2.95;2.10;;;;;;;18.29;29.23;96241.48;1764741;80;21082;-60
2021/01/21 09:43:02;;;;;;;2.25;1.55;;;;;;;17.85;29.81;96233.89;1745015;81;21173;-60
2021/01/21 09:45:31;;;;;;;2.08;1.77;;;;;;;17.63;30.00;96236.16;1737430;81;21241;-60
2021/01/21 09:47:58;;;;;;;3.33;2.60;;;;;;;17.70;30.26;96227.15;1761189;80;21163;-61
2021/01/21 09:50:27;;;;;;;3.30;3.00;;;;;;;17.93;29.79;96225.24;1773713;80;21416;-61
2021/01/21 09:52:55;;;;;;;2.83;2.62;;;;;;;18.15;29.83;96220.63;1737546;80;21122;-61
2021/01/21 09:55:22;;;;;;;3.15;2.72;;;;;;;18.72;28.96;96214.48;1753412;80;21095;-61
2021/01/21 09:57:51;;;;;;;1.92;1.67;;;;;;;19.36;28.09;96226.77;1757138;80;21136;-61
2021/01/21 10:00:21;;;;;;;2.07;1.77;;;;;;;19.79;27.23;96218.50;1768111;80;21145;-59
2021/01/21 10:02:49;;;;;;;2.33;2.12;;;;;;;20.07;26.65;96215.34;1766085;80;21868;-60
2021/01/21 10:05:19;;;;;;;2.22;1.50;;;;;;;20.20;26.37;96222.95;1762256;81;21176;-60
2021/01/21 10:07:46;;;;;;;2.02;1.37;;;;;;;20.43;25.56;96222.58;1773465;80;21038;-61
2021/01/21 10:10:14;;;;;;;3.33;2.22;;;;;;;20.34;25.98;96214.75;1735022;81;21057;-61
2021/01/21 10:12:44;;;;;;;4.25;2.55;;;;;;;20.41;25.66;96220.95;1755548;81;21073;-60
2021/01/21 10:15:13;;;;;;;4.20;3.72;;;;;;;20.51;26.10;96213.27;1738829;80;21403;-60
2021/01/21 10:17:40;;;;;;;;;;;;;;;20.92;25.28;96215.03;1729600;81;21135;-61
2021/01/21 10:20:11;;;;;;;2.50;2.12;;;;;;;20.90;25.01;96210.41;1728702;81;20602;-61
2021/01/21 10:22:39;;;;;;;2.72;2.22;;;;;;;21.09;25.22;96216.97;1757074;80;21640;-61
2021/01/21 10:25:09;;;;;;;2.50;1.85;;;;;;;21.48;24.43;96200.49;1753077;81;27107;-60
2021/01/21 10:27:37;;;;;;;2.35;1.65;;;;;;;21.42;24.79;96203.36;1757316;80;21381;-61
2021/01/21 10:30:08;;;;;;;2.27;1.77;;;;;;;21.78;24.08;96203.06;1761241;80;21497;-60
2021/01/21 10:32:35;;;;;;;3.85;1.50;;;;;;;22.02;23.93;96193.92;1760338;80;21077;-60
2021/01/21 10:35:06;;;;;;;3.42;1.82;;;;;;;22.09;23.09;96190.86;1757976;81;21069;-61
2021/01/21 10:37:33;;;;;;;2.95;2.35;;;;;;;21.83;23.80;96192.23;1769797;80;21070;-60
2021/01/21 10:40:01;;;;;;;2.30;2.10;;;;;;;21.71;24.17;96196.41;1753246;81;21361;-60
2021/01/21 10:42:29;;;;;;;2.58;2.10;;;;;;;22.04;23.80;96191.42;1762260;80;21167;-60
2021/01/21 10:44:56;;;;;;;3.33;2.70;;;;;;;22.00;23.35;96186.19;1760505;80;21500;-60
2021/01/21 10:47:25;;;;;;;4.05;2.12;;;;;;;21.34;23.67;96187.64;1739760;81;21066;-61
2021/01/21 10:49:53;;;;;;;2.80;2.60;;;;;;;20.68;24.66;96177.08;1739138;81;21093;-60
2021/01/21 10:52:21;;;;;;;4.05;1.90;;;;;;;20.49;25.36;96179.70;1739527;81;21329;-60
2021/01/21 10:54:49;;;;;;;3.60;2.60;;;;;;;20.58;25.07;96182.59;1752424;81;21176;-60
2021/01/21 10:57:17;;;;;;;2.35;2.15;;;;;;;20.40;25.41;96185.05;1763168;80;21500;-61
2021/01/21 10:59:44;;;;;;;2.87;1.80;;;;;;;20.46;25.47;96174.79;1757704;81;21103;-61
2021/01/21 11:02:12;;;;;;;2.15;1.95;;;;;;;20.84;25.07;96169.46;1741682;80;21172;-60
2021/01/21 11:04:42;;;;;;;1.90;1.67;;;;;;;21.25;24.76;96170.27;1746727;80;21392;-61
2021/01/21 11:07:10;;;;;;;2.05;1.50;;;;;;;21.48;23.92;96152.98;1761700;80;21172;-61
2021/01/21 11:09:38;;;;;;;2.33;1.67;;;;;;;21.19;24.18;96149.92;1778685;80;21061;-61
2021/01/21 11:12:06;;;;;;;3.45;1.98;;;;;;;20.96;24.47;96143.77;1752418;81;22069;-61
2021/01/21 11:14:35;;;;;;;3.90;3.10;;;;;;;20.91;24.30;96146.14;1758164;80;21078;-60
2021/01/21 11:17:03;;;;;;;;;;;;;;;20.72;24.62;96138.31;1753302;80;21347;-60
2021/01/21 11:19:31;;;;;;;3.30;1.90;;;;;;;20.72;24.62;96138.31;1773378;80;20250;-61
2021/01/21 11:22:00;;;;;;;3.10;1.90;;;;;;;20.60;24.78;96147.13;1782124;80;21132;-60
2021/01/21 11:24:29;;;;;;;;;;;;;;;20.36;24.74;96133.73;1765500;80;21172;-60
2021/01/21 11:26:56;;;;;;;5.05;1.65;;;;;;;20.00;25.36;96123.03;1757732;80;20226;-60
2021/01/21 11:29:24;;;;;;;2.83;1.60;;;;;;;19.68;25.57;96115.72;1759509;80;21815;-61
2021/01/21 11:31:53;;;;;;;1.75;1.42;;;;;;;19.21;26.28;96117.54;1753494;80;21581;-61
2021/01/21 11:34:22;;;;;;;2.15;1.55;;;;;;;18.85;26.60;96107.54;1728472;81;21125;-61
2021/01/21 11:36:50;;;;;;;2.90;1.40;;;;;;;18.47;27.30;96109.97;1732040;81;21136;-61
2021/01/21 11:39:19;;;;;;;2.67;1.35;;;;;;;17.81;27.99;96100.88;1735822;81;21566;-62
2021/01/21 11:41:47;;;;;;;1.35;1.20;;;;;;;17.00;29.18;96114.23;1737623;81;23676;-61
2021/01/21 11:44:15;;;;;;;1.70;1.60;;;;;;;16.60;29.90;96121.45;1739520;80;21200;-61
2021/01/21 11:46:42;;;;;;;4.72;3.30;;;;;;;16.41;30.43;96117.26;1750835;81;21580;-60
2021/01/21 11:49:10;;;;;;;7.57;5.20;;;;;;;16.08;30.80;96118.38;1748110;81;21603;-60
2021/01/21 11:51:38;;;;;;;4.47;3.05;;;;;;;15.70;31.57;96117.27;1752991;80;21058;-61
2021/01/21 11:54:06;;;;;;;5.00;2.80;;;;;;;15.39;32.09;96112.92;1741145;81;21360;-60
2021/01/21 11:56:34;;;;;;;1.77;1.62;;;;;;;15.00;32.72;96120.56;1745758;81;21105;-60
2021/01/21 11:59:01;;;;;;;4.87;2.65;;;;;;;14.52;33.17;96100.72;1761925;81;21129;-61
2021/01/21 12:01:29;;;;;;;2.17;1.70;;;;;;;14.07;34.14;96113.19;1745031;81;21580;-62
2021/01/21 12:03:57;;;;;;;2.37;1.42;;;;;;;13.66;35.16;96114.70;1742082;80;21045;-61